sensor_id;sensor_type;location;lat;lon;timestamp;pressure;altitude;pressure_sealevel;temperature;humidity
37202;BME280;37799;52.390;6.136;2023-12-20T00:02:04;101437.78;;;5.90;100.00
37202;BME280;37799;52.390;6.136;2023-12-20T00:04:30;101435.16;;;5.78;100.00
37202;BME280;37799;52.390;6.136;2023-12-20T00:06:55;101430.00;;;5.84;100.00
37202;BME280;37799;52.390;6.136;2023-12-20T00:09:20;101421.41;;;5.63;100.00
37202;BME280;37799;52.390;6.136;2023-12-20T00:11:45;101423.97;;;5.71;100.00
37202;BME280;37799;52.390;6.136;2023-12-20T00:14:11;101424.00;;;5.79;100.00
37202;BME280;37799;52.390;6.136;2023-12-20T00:16:36;101427.38;;;5.66;100.00
37202;BME280;37799;52.390;6.136;2023-12-20T00:19:01;101419.69;;;5.67;100.00
37202;BME280;37799;52.390;6.136;2023-12-20T00:21:27;101407.78;;;5.87;100.00
37202;BME280;37799;52.390;6.136;2023-12-20T00:23:52;101411.97;;;5.62;100.00
37202;BME280;37799;52.390;6.136;2023-12-20T00:26:17;101419.69;;;5.64;100.00
37202;BME280;37799;52.390;6.136;2023-12-20T00:28:43;101416.25;;;5.62;100.00
37202;BME280;37799;52.390;6.136;2023-12-20T00:31:08;101408.44;;;5.42;100.00
37202;BME280;37799;52.390;6.136;2023-12-20T00:33:33;101405.94;;;5.50;100.00
37202;BME280;37799;52.390;6.136;2023-12-20T00:35:58;101401.66;;;5.52;100.00
37202;BME280;37799;52.390;6.136;2023-12-20T00:38:24;101405.13;;;5.63;100.00
37202;BME280;37799;52.390;6.136;2023-12-20T00:40:49;101404.22;;;5.55;100.00
37202;BME280;37799;52.390;6.136;2023-12-20T00:43:15;101400.72;;;5.35;100.00
37202;BME280;37799;52.390;6.136;2023-12-20T00:45:40;101403.31;;;5.44;100.00
37202;BME280;37799;52.390;6.136;2023-12-20T00:48:05;101400.69;;;5.28;100.00
37202;BME280;37799;52.390;6.136;2023-12-20T00:50:31;101408.41;;;5.30;100.00
37202;BME280;37799;52.390;6.136;2023-12-20T00:52:56;101409.25;;;5.30;100.00
37202;BME280;37799;52.390;6.136;2023-12-20T00:55:22;101403.25;;;5.31;100.00
37202;BME280;37799;52.390;6.136;2023-12-20T00:57:47;101398.16;;;5.36;100.00
37202;BME280;37799;52.390;6.136;2023-12-20T01:00:13;101394.75;;;5.40;100.00
37202;BME280;37799;52.390;6.136;2023-12-20T01:02:39;101393.09;;;5.56;100.00
37202;BME280;37799;52.390;6.136;2023-12-20T01:05:05;101396.50;;;5.50;100.00
37202;BME280;37799;52.390;6.136;2023-12-20T01:07:32;101392.22;;;5.55;100.00
37202;BME280;37799;52.390;6.136;2023-12-20T01:09:57;101401.59;;;5.44;100.00
37202;BME280;37799;52.390;6.136;2023-12-20T01:12:23;101401.56;;;5.32;100.00
37202;BME280;37799;52.390;6.136;2023-12-20T01:14:48;101403.25;;;5.31;100.00
37202;BME280;37799;52.390;6.136;2023-12-20T01:17:13;101408.41;;;5.31;100.00
37202;BME280;37799;52.390;6.136;2023-12-20T01:19:39;101415.31;;;5.45;100.00
37202;BME280;37799;52.390;6.136;2023-12-20T01:22:04;101400.75;;;5.41;100.00
37202;BME280;37799;52.390;6.136;2023-12-20T01:24:30;101417.88;;;5.45;100.00
37202;BME280;37799;52.390;6.136;2023-12-20T01:26:55;101420.31;;;5.20;100.00
37202;BME280;37799;52.390;6.136;2023-12-20T01:29:21;101416.03;;;5.16;100.00
37202;BME280;37799;52.390;6.136;2023-12-20T01:31:46;101407.47;;;5.11;100.00
37202;BME280;37799;52.390;6.136;2023-12-20T01:34:12;101393.03;;;5.39;100.00
37202;BME280;37799;52.390;6.136;2023-12-20T01:36:37;101399.88;;;5.37;100.00
37202;BME280;37799;52.390;6.136;2023-12-20T01:39:02;101394.75;;;5.39;100.00
37202;BME280;37799;52.390;6.136;2023-12-20T01:41:27;101406.78;;;5.56;100.00
37202;BME280;37799;52.390;6.136;2023-12-20T01:43:53;101410.22;;;5.58;100.00
37202;BME280;37799;52.390;6.136;2023-12-20T01:46:19;101411.03;;;5.44;100.00
37202;BME280;37799;52.390;6.136;2023-12-20T01:48:45;101402.38;;;5.23;100.00
37202;BME280;37799;52.390;6.136;2023-12-20T01:51:10;101390.47;;;5.47;100.00
37202;BME280;37799;52.390;6.136;2023-12-20T01:53:36;101394.75;;;5.34;100.00
37202;BME280;37799;52.390;6.136;2023-12-20T01:56:02;101393.84;;;5.29;100.00
37202;BME280;37799;52.390;6.136;2023-12-20T01:58:27;101400.75;;;5.38;100.00
37202;BME280;37799;52.390;6.136;2023-12-20T02:00:53;101399.03;;;5.37;100.00
37202;BME280;37799;52.390;6.136;2023-12-20T02:03:19;101399.03;;;5.44;100.00
37202;BME280;37799;52.390;6.136;2023-12-20T02:05:47;101401.59;;;5.40;100.00
37202;BME280;37799;52.390;6.136;2023-12-20T02:08:13;101394.75;;;5.36;100.00
37202;BME280;37799;52.390;6.136;2023-12-20T02:10:38;101406.78;;;5.49;100.00
37202;BME280;37799;52.390;6.136;2023-12-20T02:13:05;101404.22;;;5.55;100.00
37202;BME280;37799;52.390;6.136;2023-12-20T02:15:30;101395.66;;;5.50;100.00
37202;BME280;37799;52.390;6.136;2023-12-20T02:17:56;101387.09;;;5.51;100.00
37202;BME280;37799;52.390;6.136;2023-12-20T02:20:21;101380.19;;;5.44;100.00
37202;BME280;37799;52.390;6.136;2023-12-20T02:22:47;101382.84;;;5.60;100.00
37202;BME280;37799;52.390;6.136;2023-12-20T02:25:12;101374.28;;;5.60;100.00
37202;BME280;37799;52.390;6.136;2023-12-20T02:27:38;101371.72;;;5.60;100.00
37202;BME280;37799;52.390;6.136;2023-12-20T02:30:05;101378.50;;;5.46;100.00
37202;BME280;37799;52.390;6.136;2023-12-20T02:32:30;101373.44;;;5.64;100.00
37202;BME280;37799;52.390;6.136;2023-12-20T02:34:56;101370.88;;;5.67;100.00
37202;BME280;37799;52.390;6.136;2023-12-20T02:37:21;101370.84;;;5.59;100.00
37202;BME280;37799;52.390;6.136;2023-12-20T02:39:47;101366.59;;;5.72;100.00
37202;BME280;37799;52.390;6.136;2023-12-20T02:42:12;101368.28;;;5.61;100.00
37202;BME280;37799;52.390;6.136;2023-12-20T02:44:37;101364.84;;;5.59;100.00
37202;BME280;37799;52.390;6.136;2023-12-20T02:47:03;101364.88;;;5.70;100.00
37202;BME280;37799;52.390;6.136;2023-12-20T02:49:28;101352.06;;;5.83;100.00
37202;BME280;37799;52.390;6.136;2023-12-20T02:51:54;101358.06;;;5.79;100.00
37202;BME280;37799;52.390;6.136;2023-12-20T02:54:19;101342.69;;;5.91;100.00
37202;BME280;37799;52.390;6.136;2023-12-20T02:56:44;101344.38;;;5.86;100.00
37202;BME280;37799;52.390;6.136;2023-12-20T02:59:10;101346.09;;;5.87;100.00
37202;BME280;37799;52.390;6.136;2023-12-20T03:01:35;101340.97;;;5.90;100.00
37202;BME280;37799;52.390;6.136;2023-12-20T03:04:06;101341.00;;;6.01;100.00
37202;BME280;37799;52.390;6.136;2023-12-20T03:06:31;101346.13;;;6.12;100.00
37202;BME280;37799;52.390;6.136;2023-12-20T03:08:56;101342.72;;;6.13;100.00
37202;BME280;37799;52.390;6.136;2023-12-20T03:11:26;101338.41;;;6.04;100.00
37202;BME280;37799;52.390;6.136;2023-12-20T03:13:51;101339.25;;;6.11;100.00
37202;BME280;37799;52.390;6.136;2023-12-20T03:16:17;101341.84;;;6.00;100.00
37202;BME280;37799;52.390;6.136;2023-12-20T03:18:42;101331.56;;;6.05;100.00
37202;BME280;37799;52.390;6.136;2023-12-20T03:21:07;101340.13;;;6.16;100.00
37202;BME280;37799;52.390;6.136;2023-12-20T03:23:33;101339.28;;;6.20;100.00
37202;BME280;37799;52.390;6.136;2023-12-20T03:25:59;101335.84;;;6.21;100.00
37202;BME280;37799;52.390;6.136;2023-12-20T03:28:26;101333.28;;;6.29;100.00
37202;BME280;37799;52.390;6.136;2023-12-20T03:30:51;101333.25;;;6.24;100.00
37202;BME280;37799;52.390;6.136;2023-12-20T03:33:17;101328.16;;;6.26;100.00
37202;BME280;37799;52.390;6.136;2023-12-20T03:35:42;101320.41;;;6.19;100.00
37202;BME280;37799;52.390;6.136;2023-12-20T03:38:07;101317.84;;;6.16;100.00
37202;BME280;37799;52.390;6.136;2023-12-20T03:40:33;101328.13;;;6.22;100.00
37202;BME280;37799;52.390;6.136;2023-12-20T03:42:58;101334.13;;;6.21;100.00
37202;BME280;37799;52.390;6.136;2023-12-20T03:45:24;101334.13;;;6.23;100.00
37202;BME280;37799;52.390;6.136;2023-12-20T03:47:49;101330.69;;;6.12;100.00
37202;BME280;37799;52.390;6.136;2023-12-20T03:50:15;101336.72;;;6.14;100.00
37202;BME280;37799;52.390;6.136;2023-12-20T03:52:40;101331.56;;;6.26;100.00
37202;BME280;37799;52.390;6.136;2023-12-20T03:55:06;101338.44;;;6.26;100.00
37202;BME280;37799;52.390;6.136;2023-12-20T03:57:31;101334.13;;;6.21;100.00
37202;BME280;37799;52.390;6.136;2023-12-20T03:59:56;101333.25;;;6.22;100.00
37202;BME280;37799;52.390;6.136;2023-12-20T04:02:22;101332.41;;;6.11;100.00
37202;BME280;37799;52.390;6.136;2023-12-20T04:04:47;101320.41;;;6.04;100.00
37202;BME280;37799;52.390;6.136;2023-12-20T04:07:12;101322.97;;;5.98;100.00
37202;BME280;37799;52.390;6.136;2023-12-20T04:09:37;101330.69;;;6.06;100.00
37202;BME280;37799;52.390;6.136;2023-12-20T04:12:03;101319.56;;;6.01;100.00
37202;BME280;37799;52.390;6.136;2023-12-20T04:14:28;101318.69;;;5.99;100.00
37202;BME280;37799;52.390;6.136;2023-12-20T04:16:54;101320.34;;;5.78;100.00
37202;BME280;37799;52.390;6.136;2023-12-20T04:19:19;101327.22;;;5.88;100.00
37202;BME280;37799;52.390;6.136;2023-12-20T04:21:44;101327.25;;;5.98;100.00
37202;BME280;37799;52.390;6.136;2023-12-20T04:24:09;101310.13;;;6.03;100.00
37202;BME280;37799;52.390;6.136;2023-12-20T04:26:35;101318.72;;;6.02;100.00
37202;BME280;37799;52.390;6.136;2023-12-20T04:29:01;101305.84;;;5.97;100.00
37202;BME280;37799;52.390;6.136;2023-12-20T04:31:26;101315.28;;;5.90;100.00
37202;BME280;37799;52.390;6.136;2023-12-20T04:33:51;101316.13;;;5.96;100.00
37202;BME280;37799;52.390;6.136;2023-12-20T04:36:16;101310.13;;;6.06;100.00
37202;BME280;37799;52.390;6.136;2023-12-20T04:38:42;101301.56;;;6.01;100.00
37202;BME280;37799;52.390;6.136;2023-12-20T04:41:07;101311.00;;;6.14;100.00
37202;BME280;37799;52.390;6.136;2023-12-20T04:43:32;101310.13;;;6.18;100.00
37202;BME280;37799;52.390;6.136;2023-12-20T04:45:58;101314.41;;;6.11;100.00
37202;BME280;37799;52.390;6.136;2023-12-20T04:48:23;101316.09;;;6.35;100.00
37202;BME280;37799;52.390;6.136;2023-12-20T04:50:48;101321.25;;;6.25;100.00
37202;BME280;37799;52.390;6.136;2023-12-20T04:53:14;101321.28;;;6.26;100.00
37202;BME280;37799;52.390;6.136;2023-12-20T04:55:39;101324.69;;;6.43;100.00
37202;BME280;37799;52.390;6.136;2023-12-20T04:58:04;101310.13;;;6.30;100.00
37202;BME280;37799;52.390;6.136;2023-12-20T05:00:29;101313.53;;;6.35;100.00
37202;BME280;37799;52.390;6.136;2023-12-20T05:02:55;101308.41;;;6.31;100.00
37202;BME280;37799;52.390;6.136;2023-12-20T05:05:20;101310.13;;;6.30;100.00
37202;BME280;37799;52.390;6.136;2023-12-20T05:07:45;101310.13;;;6.32;100.00
37202;BME280;37799;52.390;6.136;2023-12-20T05:10:11;101305.81;;;6.37;100.00
37202;BME280;37799;52.390;6.136;2023-12-20T05:12:36;101316.97;;;6.51;100.00
37202;BME280;37799;52.390;6.136;2023-12-20T05:15:01;101313.53;;;6.37;100.00
37202;BME280;37799;52.390;6.136;2023-12-20T05:17:27;101301.53;;;6.51;100.00
37202;BME280;37799;52.390;6.136;2023-12-20T05:19:52;101304.09;;;6.49;100.00
37202;BME280;37799;52.390;6.136;2023-12-20T05:22:19;101298.97;;;6.40;100.00
37202;BME280;37799;52.390;6.136;2023-12-20T05:24:44;101294.63;;;6.61;100.00
37202;BME280;37799;52.390;6.136;2023-12-20T05:27:10;101292.91;;;6.60;100.00
37202;BME280;37799;52.390;6.136;2023-12-20T05:29:36;101300.66;;;6.55;100.00
37202;BME280;37799;52.390;6.136;2023-12-20T05:32:01;101302.34;;;6.61;100.00
37202;BME280;37799;52.390;6.136;2023-12-20T05:34:28;101297.22;;;6.61;100.00
37202;BME280;37799;52.390;6.136;2023-12-20T05:36:53;101298.91;;;6.68;100.00
37202;BME280;37799;52.390;6.136;2023-12-20T05:39:19;101297.22;;;6.58;100.00
37202;BME280;37799;52.390;6.136;2023-12-20T05:41:44;101296.38;;;6.49;100.00
37202;BME280;37799;52.390;6.136;2023-12-20T05:44:09;101300.66;;;6.50;100.00
37202;BME280;37799;52.390;6.136;2023-12-20T05:46:35;101288.66;;;6.48;100.00
37202;BME280;37799;52.390;6.136;2023-12-20T05:49:01;101292.94;;;6.50;100.00
37202;BME280;37799;52.390;6.136;2023-12-20T05:51:27;101292.94;;;6.66;100.00
37202;BME280;37799;52.390;6.136;2023-12-20T05:53:52;101297.22;;;6.65;100.00
37202;BME280;37799;52.390;6.136;2023-12-20T05:56:17;101301.47;;;6.72;100.00
37202;BME280;37799;52.390;6.136;2023-12-20T05:58:43;101301.44;;;6.77;100.00
37202;BME280;37799;52.390;6.136;2023-12-20T06:01:08;101300.59;;;6.75;100.00
37202;BME280;37799;52.390;6.136;2023-12-20T06:03:34;101294.59;;;6.79;100.00
37202;BME280;37799;52.390;6.136;2023-12-20T06:05:59;101293.69;;;6.88;100.00
37202;BME280;37799;52.390;6.136;2023-12-20T06:08:29;101292.84;;;6.84;100.00
37202;BME280;37799;52.390;6.136;2023-12-20T06:10:54;101290.25;;;6.89;100.00
37202;BME280;37799;52.390;6.136;2023-12-20T06:13:19;101285.94;;;6.95;100.00
37202;BME280;37799;52.390;6.136;2023-12-20T06:15:45;101287.69;;;6.93;100.00
37202;BME280;37799;52.390;6.136;2023-12-20T06:18:10;101286.81;;;6.96;100.00
37202;BME280;37799;52.390;6.136;2023-12-20T06:20:35;101297.06;;;7.06;100.00
37202;BME280;37799;52.390;6.136;2023-12-20T06:23:01;101284.19;;;7.00;100.00
37202;BME280;37799;52.390;6.136;2023-12-20T06:25:26;101290.22;;;7.04;100.00
37202;BME280;37799;52.390;6.136;2023-12-20T06:27:51;101282.47;;;7.02;100.00
37202;BME280;37799;52.390;6.136;2023-12-20T06:30:17;101279.97;;;6.92;100.00
37202;BME280;37799;52.390;6.136;2023-12-20T06:32:42;101275.59;;;7.03;100.00
37202;BME280;37799;52.390;6.136;2023-12-20T06:35:08;101273.09;;;6.95;100.00
37202;BME280;37799;52.390;6.136;2023-12-20T06:37:34;101273.91;;;7.06;100.00
37202;BME280;37799;52.390;6.136;2023-12-20T06:40:00;101277.31;;;7.02;100.00
37202;BME280;37799;52.390;6.136;2023-12-20T06:42:25;101276.50;;;7.03;100.00
37202;BME280;37799;52.390;6.136;2023-12-20T06:44:50;101279.03;;;7.06;100.00
37202;BME280;37799;52.390;6.136;2023-12-20T06:47:16;101279.03;;;7.06;100.00
37202;BME280;37799;52.390;6.136;2023-12-20T06:49:41;101285.91;;;7.07;100.00
37202;BME280;37799;52.390;6.136;2023-12-20T06:52:06;101280.72;;;7.10;100.00
37202;BME280;37799;52.390;6.136;2023-12-20T06:54:31;101275.56;;;7.17;100.00
37202;BME280;37799;52.390;6.136;2023-12-20T06:56:59;101267.00;;;7.16;100.00
37202;BME280;37799;52.390;6.136;2023-12-20T06:59:24;101270.41;;;7.20;100.00
37202;BME280;37799;52.390;6.136;2023-12-20T07:01:50;101272.13;;;7.15;100.00
37202;BME280;37799;52.390;6.136;2023-12-20T07:04:16;101261.84;;;7.12;100.00
37202;BME280;37799;52.390;6.136;2023-12-20T07:06:45;101268.69;;;7.19;100.00
37202;BME280;37799;52.390;6.136;2023-12-20T07:09:10;101267.78;;;7.26;100.00
37202;BME280;37799;52.390;6.136;2023-12-20T07:11:36;101266.13;;;7.19;100.00
37202;BME280;37799;52.390;6.136;2023-12-20T07:14:01;101260.94;;;7.16;100.00
37202;BME280;37799;52.390;6.136;2023-12-20T07:16:26;101265.19;;;7.26;100.00
37202;BME280;37799;52.390;6.136;2023-12-20T07:18:51;101259.25;;;7.15;100.00
37202;BME280;37799;52.390;6.136;2023-12-20T07:21:17;101268.66;;;7.22;100.00
37202;BME280;37799;52.390;6.136;2023-12-20T07:23:43;101257.53;;;7.18;100.00
37202;BME280;37799;52.390;6.136;2023-12-20T07:26:08;101257.47;;;7.24;100.00
37202;BME280;37799;52.390;6.136;2023-12-20T07:28:33;101260.03;;;7.26;100.00
37202;BME280;37799;52.390;6.136;2023-12-20T07:30:59;101248.06;;;7.20;100.00
37202;BME280;37799;52.390;6.136;2023-12-20T07:33:24;101256.63;;;7.25;100.00
37202;BME280;37799;52.390;6.136;2023-12-20T07:35:49;101254.88;;;7.30;100.00
37202;BME280;37799;52.390;6.136;2023-12-20T07:38:16;101253.22;;;7.22;100.00
37202;BME280;37799;52.390;6.136;2023-12-20T07:40:42;101255.78;;;7.20;100.00
37202;BME280;37799;52.390;6.136;2023-12-20T07:43:07;101242.94;;;7.17;100.00
37202;BME280;37799;52.390;6.136;2023-12-20T07:45:33;101244.59;;;7.26;100.00
37202;BME280;37799;52.390;6.136;2023-12-20T07:47:58;101242.03;;;7.26;100.00
37202;BME280;37799;52.390;6.136;2023-12-20T07:50:23;101235.13;;;7.32;100.00
37202;BME280;37799;52.390;6.136;2023-12-20T07:52:48;101248.00;;;7.31;100.00
37202;BME280;37799;52.390;6.136;2023-12-20T07:55:14;101256.59;;;7.33;100.00
37202;BME280;37799;52.390;6.136;2023-12-20T07:57:39;101265.19;;;7.26;100.00
37202;BME280;37799;52.390;6.136;2023-12-20T08:00:05;101273.72;;;7.43;100.00
37202;BME280;37799;52.390;6.136;2023-12-20T08:02:30;101277.97;;;7.47;100.00
37202;BME280;37799;52.390;6.136;2023-12-20T08:04:55;101270.28;;;7.39;100.00
37202;BME280;37799;52.390;6.136;2023-12-20T08:07:21;101267.75;;;7.33;100.00
37202;BME280;37799;52.390;6.136;2023-12-20T08:09:46;101266.00;;;7.37;100.00
37202;BME280;37799;52.390;6.136;2023-12-20T08:12:11;101266.84;;;7.37;100.00
37202;BME280;37799;52.390;6.136;2023-12-20T08:14:37;101264.31;;;7.33;100.00
37202;BME280;37799;52.390;6.136;2023-12-20T08:17:02;101268.56;;;7.40;100.00
37202;BME280;37799;52.390;6.136;2023-12-20T08:19:28;101266.88;;;7.36;100.00
37202;BME280;37799;52.390;6.136;2023-12-20T08:21:53;101267.75;;;7.33;100.00
37202;BME280;37799;52.390;6.136;2023-12-20T08:24:18;101271.09;;;7.46;100.00
37202;BME280;37799;52.390;6.136;2023-12-20T08:26:43;101278.84;;;7.46;100.00
37202;BME280;37799;52.390;6.136;2023-12-20T08:29:09;101267.72;;;7.38;100.00
37202;BME280;37799;52.390;6.136;2023-12-20T08:31:34;101266.88;;;7.36;100.00
37202;BME280;37799;52.390;6.136;2023-12-20T08:33:59;101269.44;;;7.36;100.00
37202;BME280;37799;52.390;6.136;2023-12-20T08:36:25;101260.81;;;7.40;100.00
37202;BME280;37799;52.390;6.136;2023-12-20T08:38:50;101268.56;;;7.43;100.00
37202;BME280;37799;52.390;6.136;2023-12-20T08:41:18;101253.94;;;7.40;100.00
37202;BME280;37799;52.390;6.136;2023-12-20T08:43:45;101255.72;;;7.32;100.00
37202;BME280;37799;52.390;6.136;2023-12-20T08:46:10;101262.50;;;7.49;100.00
37202;BME280;37799;52.390;6.136;2023-12-20T08:48:36;101260.81;;;7.42;100.00
37202;BME280;37799;52.390;6.136;2023-12-20T08:51:02;101271.94;;;7.48;100.00
37202;BME280;37799;52.390;6.136;2023-12-20T08:53:28;101262.50;;;7.47;100.00
37202;BME280;37799;52.390;6.136;2023-12-20T08:55:53;101273.63;;;7.55;100.00
37202;BME280;37799;52.390;6.136;2023-12-20T08:58:18;101266.72;;;7.59;100.00
37202;BME280;37799;52.390;6.136;2023-12-20T09:00:45;101267.59;;;7.53;100.00
37202;BME280;37799;52.390;6.136;2023-12-20T09:03:10;101262.47;;;7.50;100.00
37202;BME280;37799;52.390;6.136;2023-12-20T09:05:35;101257.34;;;7.47;100.00
37202;BME280;37799;52.390;6.136;2023-12-20T09:08:01;101250.50;;;7.42;100.00
37202;BME280;37799;52.390;6.136;2023-12-20T09:10:26;101258.13;;;7.60;100.00
37202;BME280;37799;52.390;6.136;2023-12-20T09:12:52;101259.06;;;7.47;100.00
37202;BME280;37799;52.390;6.136;2023-12-20T09:15:24;101251.28;;;7.56;100.00
37202;BME280;37799;52.390;6.136;2023-12-20T09:17:50;101254.63;;;7.70;100.00
37202;BME280;37799;52.390;6.136;2023-12-20T09:20:15;101260.63;;;7.72;100.00
37202;BME280;37799;52.390;6.136;2023-12-20T09:22:40;101266.66;;;7.71;100.00
37202;BME280;37799;52.390;6.136;2023-12-20T09:25:07;101263.16;;;7.77;100.00
37202;BME280;37799;52.390;6.136;2023-12-20T09:27:33;101267.44;;;7.79;100.00
37202;BME280;37799;52.390;6.136;2023-12-20T09:29:58;101269.03;;;7.95;100.00
37202;BME280;37799;52.390;6.136;2023-12-20T09:32:23;101262.22;;;7.87;100.00
37202;BME280;37799;52.390;6.136;2023-12-20T09:34:49;101265.63;;;7.90;100.00
37202;BME280;37799;52.390;6.136;2023-12-20T09:37:14;101272.41;;;8.02;100.00
37202;BME280;37799;52.390;6.136;2023-12-20T09:39:39;101273.28;;;8.01;100.00
37202;BME280;37799;52.390;6.136;2023-12-20T09:42:06;101270.63;;;8.09;100.00
37202;BME280;37799;52.390;6.136;2023-12-20T09:44:32;101269.69;;;8.16;100.00
37202;BME280;37799;52.390;6.136;2023-12-20T09:47:02;101266.19;;;8.24;100.00
37202;BME280;37799;52.390;6.136;2023-12-20T09:49:27;101260.22;;;8.21;100.00
37202;BME280;37799;52.390;6.136;2023-12-20T09:51:53;101271.34;;;8.24;100.00
37202;BME280;37799;52.390;6.136;2023-12-20T09:54:20;101279.09;;;8.24;100.00
37202;BME280;37799;52.390;6.136;2023-12-20T09:56:46;101278.19;;;8.27;100.00
37202;BME280;37799;52.390;6.136;2023-12-20T09:59:12;101286.88;;;8.21;100.00
37202;BME280;37799;52.390;6.136;2023-12-20T10:01:41;101287.72;;;8.22;100.00
37202;BME280;37799;52.390;6.136;2023-12-20T10:04:09;101283.38;;;8.25;100.00
37202;BME280;37799;52.390;6.136;2023-12-20T10:06:40;101285.13;;;8.23;100.00
37202;BME280;37799;52.390;6.136;2023-12-20T10:09:05;101285.81;;;8.44;100.00
37202;BME280;37799;52.390;6.136;2023-12-20T10:11:31;101285.81;;;8.47;100.00
37202;BME280;37799;52.390;6.136;2023-12-20T10:14:00;101281.44;;;8.50;100.00
37202;BME280;37799;52.390;6.136;2023-12-20T10:16:26;101284.00;;;8.53;100.00
37202;BME280;37799;52.390;6.136;2023-12-20T10:18:53;101286.59;;;8.52;100.00
37202;BME280;37799;52.390;6.136;2023-12-20T10:21:18;101291.69;;;8.60;100.00
37202;BME280;37799;52.390;6.136;2023-12-20T10:23:44;101293.16;;;8.80;100.00
37202;BME280;37799;52.390;6.136;2023-12-20T10:26:09;101283.66;;;8.85;100.00
37202;BME280;37799;52.390;6.136;2023-12-20T10:28:35;101275.78;;;8.95;100.00
37202;BME280;37799;52.390;6.136;2023-12-20T10:31:00;101277.41;;;9.03;100.00
37202;BME280;37799;52.390;6.136;2023-12-20T10:33:27;101277.41;;;9.03;100.00
37202;BME280;37799;52.390;6.136;2023-12-20T10:35:54;101284.16;;;9.15;100.00
37202;BME280;37799;52.390;6.136;2023-12-20T10:38:20;101282.50;;;9.08;100.00
37202;BME280;37799;52.390;6.136;2023-12-20T10:40:46;101269.72;;;8.99;100.00
37202;BME280;37799;52.390;6.136;2023-12-20T10:43:11;101272.31;;;8.96;100.00
37202;BME280;37799;52.390;6.136;2023-12-20T10:45:37;101270.41;;;9.13;100.00
37202;BME280;37799;52.390;6.136;2023-12-20T10:48:03;101262.59;;;9.16;100.00
37202;BME280;37799;52.390;6.136;2023-12-20T10:50:29;101265.16;;;9.18;100.00
37202;BME280;37799;52.390;6.136;2023-12-20T10:52:55;101255.41;;;9.38;100.00
37202;BME280;37799;52.390;6.136;2023-12-20T10:55:24;101254.28;;;9.56;100.00
37202;BME280;37799;52.390;6.136;2023-12-20T10:58:06;101247.16;;;9.70;100.00
37202;BME280;37799;52.390;6.136;2023-12-20T11:00:36;101246.31;;;9.69;100.00
37202;BME280;37799;52.390;6.136;2023-12-20T11:03:03;101242.22;;;9.55;100.00
37202;BME280;37799;52.390;6.136;2023-12-20T11:08:28;101233.38;;;9.12;100.00
37202;BME280;37799;52.390;6.136;2023-12-20T11:11:01;101231.69;;;9.08;100.00
37202;BME280;37799;52.390;6.136;2023-12-20T11:13:41;101241.28;;;9.00;100.00
37202;BME280;37799;52.390;6.136;2023-12-20T11:16:09;101238.78;;;8.93;100.00
37202;BME280;37799;52.390;6.136;2023-12-20T11:18:35;101239.56;;;8.98;100.00
37202;BME280;37799;52.390;6.136;2023-12-20T11:21:02;101238.28;;;8.63;100.00
37202;BME280;37799;52.390;6.136;2023-12-20T11:23:29;101242.19;;;8.16;100.00
37202;BME280;37799;52.390;6.136;2023-12-20T11:25:57;101247.56;;;7.95;100.00
37202;BME280;37799;52.390;6.136;2023-12-20T11:28:26;101239.16;;;7.72;100.00
37202;BME280;37799;52.390;6.136;2023-12-20T11:30:56;101232.47;;;7.45;100.00
37202;BME280;37799;52.390;6.136;2023-12-20T11:33:37;101212.66;;;7.50;100.00
37202;BME280;37799;52.390;6.136;2023-12-20T11:36:06;101219.50;;;7.57;100.00
37202;BME280;37799;52.390;6.136;2023-12-20T11:38:37;101212.66;;;7.50;100.00
37202;BME280;37799;52.390;6.136;2023-12-20T11:41:05;101208.41;;;7.47;100.00
37202;BME280;37799;52.390;6.136;2023-12-20T11:43:37;101216.91;;;7.54;100.00
37202;BME280;37799;52.390;6.136;2023-12-20T11:46:08;101216.06;;;7.53;100.00
37202;BME280;37799;52.390;6.136;2023-12-20T11:48:35;101217.72;;;7.62;100.00
37202;BME280;37799;52.390;6.136;2023-12-20T11:51:00;101215.94;;;7.72;100.00
37202;BME280;37799;52.390;6.136;2023-12-20T11:53:26;101213.41;;;7.68;100.00
37202;BME280;37799;52.390;6.136;2023-12-20T11:55:54;101229.69;;;7.71;100.00
37202;BME280;37799;52.390;6.136;2023-12-20T11:58:19;101234.78;;;7.77;100.00
37202;BME280;37799;52.390;6.136;2023-12-20T12:00:45;101233.13;;;7.68;100.00
37202;BME280;37799;52.390;6.136;2023-12-20T12:03:14;101223.78;;;7.58;100.00
37202;BME280;37799;52.390;6.136;2023-12-20T12:05:40;101218.72;;;7.44;100.00
37202;BME280;37799;52.390;6.136;2023-12-20T12:08:05;101209.28;;;7.43;100.00
37202;BME280;37799;52.390;6.136;2023-12-20T12:10:31;101217.03;;;7.40;100.00
37202;BME280;37799;52.390;6.136;2023-12-20T12:12:56;101216.09;;;7.52;100.00
37202;BME280;37799;52.390;6.136;2023-12-20T12:15:21;101213.53;;;7.50;100.00
37202;BME280;37799;52.390;6.136;2023-12-20T12:17:54;101197.88;;;7.73;100.00
37202;BME280;37799;52.390;6.136;2023-12-20T12:20:20;101196.19;;;7.67;100.00
37202;BME280;37799;52.390;6.136;2023-12-20T12:22:45;101189.00;;;8.05;100.00
37202;BME280;37799;52.390;6.136;2023-12-20T12:25:13;101185.63;;;7.98;100.00
37202;BME280;37799;52.390;6.136;2023-12-20T12:27:42;101182.19;;;7.99;100.00
37202;BME280;37799;52.390;6.136;2023-12-20T12:30:09;101195.91;;;8.01;100.00
37202;BME280;37799;52.390;6.136;2023-12-20T12:32:35;101190.66;;;8.07;100.00
37202;BME280;37799;52.390;6.136;2023-12-20T12:35:03;101199.25;;;8.12;100.00
37202;BME280;37799;52.390;6.136;2023-12-20T12:37:28;101194.25;;;7.95;100.00
37202;BME280;37799;52.390;6.136;2023-12-20T12:39:53;101194.25;;;7.95;100.00
37202;BME280;37799;52.390;6.136;2023-12-20T12:42:20;101176.25;;;7.88;100.00
37202;BME280;37799;52.390;6.136;2023-12-20T12:44:46;101172.75;;;7.93;100.00
37202;BME280;37799;52.390;6.136;2023-12-20T12:47:12;101180.28;;;8.16;100.00